Time;durP1;ratioP1;P1;durP2;ratioP2;P2;SDS_P1;SDS_P2;PMS_P1;PMS_P2;Temp;Humidity;BMP_temperature;BMP_pressure;BME280_temperature;BME280_humidity;BME280_pressure;Samples;Min_cycle;Max_cycle;Signal;HPM_P1;HPM_P2
2023/01/22 00:01:41;;;;;;;10.50;4.85;;;-3.30;92.30;;;;;;5051212;28;20365;-77
2023/01/22 00:04:08;;;;;;;15.50;8.05;;;-3.30;92.20;;;;;;5037122;28;20037;-79
2023/01/22 00:06:34;;;;;;;11.82;6.75;;;-3.40;92.20;;;;;;5049950;28;20078;-77
2023/01/22 00:09:02;;;;;;;14.38;7.80;;;-3.40;92.30;;;;;;5047490;28;20484;-78
2023/01/22 00:11:29;;;;;;;15.75;8.85;;;-3.50;92.40;;;;;;5049733;28;20036;-81
2023/01/22 00:13:54;;;;;;;17.05;8.50;;;-3.40;92.50;;;;;;5051563;28;20028;-82
2023/01/22 00:16:21;;;;;;;15.50;8.48;;;-3.40;92.50;;;;;;5048064;28;20064;-78
2023/01/22 00:18:46;;;;;;;16.17;7.03;;;-3.30;92.50;;;;;;5040453;28;20017;-78
2023/01/22 00:21:12;;;;;;;14.40;7.45;;;-3.20;92.50;;;;;;5051102;28;20036;-80
2023/01/22 00:23:39;;;;;;;18.42;8.00;;;-3.20;92.30;;;;;;5037781;28;20029;-77
2023/01/22 00:26:11;;;;;;;11.90;7.60;;;-3.20;92.40;;;;;;5048315;28;20088;-78
2023/01/22 00:28:40;;;;;;;17.58;8.30;;;-3.20;92.50;;;;;;5051883;28;20550;-79
2023/01/22 00:31:07;;;;;;;17.58;7.38;;;-3.20;92.40;;;;;;5050265;28;20444;-79
2023/01/22 00:33:33;;;;;;;14.18;7.90;;;-3.10;92.40;;;;;;5040226;28;20476;-78
2023/01/22 00:36:20;;;;;;;13.50;6.78;;;-3.10;92.40;;;;;;5061146;28;20024;-77
2023/01/22 00:38:46;;;;;;;8.25;5.03;;;-3.10;92.40;;;;;;5053053;28;20026;-77
2023/01/22 00:41:16;;;;;;;10.75;6.20;;;-3.10;92.40;;;;;;5063805;28;20029;-76
2023/01/22 00:43:42;;;;;;;16.48;7.85;;;-3.20;92.40;;;;;;5065384;28;20025;-77
2023/01/22 00:46:11;;;;;;;14.80;8.10;;;-3.10;92.60;;;;;;5065459;28;20039;-76
2023/01/22 00:48:37;;;;;;;15.73;8.32;;;-3.10;92.60;;;;;;5058037;28;20021;-77
2023/01/22 00:51:04;;;;;;;16.10;7.85;;;-3.10;92.60;;;;;;5036838;28;20052;-77
2023/01/22 00:53:30;;;;;;;15.57;9.23;;;-3.10;92.60;;;;;;5054833;28;20067;-78
2023/01/22 00:56:00;;;;;;;16.50;10.05;;;-3.10;92.60;;;;;;5055103;28;20029;-76
2023/01/22 00:58:27;;;;;;;15.50;7.82;;;-3.10;92.70;;;;;;5054190;28;20491;-77
2023/01/22 01:00:53;;;;;;;19.17;9.70;;;-3.20;92.80;;;;;;5054621;28;20029;-78
2023/01/22 01:03:26;;;;;;;14.38;8.65;;;-3.20;92.90;;;;;;5052687;28;20021;-78
2023/01/22 01:06:24;;;;;;;16.83;9.20;;;-3.20;93.00;;;;;;5053143;28;20097;-78
2023/01/22 01:08:50;;;;;;;15.50;7.15;;;-3.20;92.90;;;;;;5047912;28;20079;-79
2023/01/22 01:11:22;;;;;;;18.05;8.15;;;-3.20;93.00;;;;;;5054276;28;20028;-78
2023/01/22 01:13:48;;;;;;;17.23;8.18;;;-3.20;93.10;;;;;;5053929;28;20104;-78
2023/01/22 01:16:17;;;;;;;16.23;8.40;;;-3.30;93.10;;;;;;5054094;28;20017;-78
2023/01/22 01:18:43;;;;;;;9.80;6.97;;;-3.20;93.20;;;;;;5053838;28;20017;-77
2023/01/22 01:21:10;;;;;;;19.80;9.10;;;-3.20;93.30;;;;;;5054172;28;20483;-78
2023/01/22 01:23:36;;;;;;;17.63;9.00;;;-3.30;93.30;;;;;;5054155;28;20017;-77
2023/01/22 01:26:11;;;;;;;18.88;8.98;;;-3.30;93.40;;;;;;5053929;28;20033;-79
2023/01/22 01:28:38;;;;;;;20.27;8.63;;;-3.30;93.50;;;;;;5049953;28;20557;-78
2023/01/22 01:31:06;;;;;;;16.92;7.45;;;-3.30;93.50;;;;;;5053663;28;20028;-79
2023/01/22 01:33:32;;;;;;;15.77;8.68;;;-3.30;93.60;;;;;;5044456;28;20044;-78
2023/01/22 01:36:04;;;;;;;10.38;7.30;;;-3.30;93.60;;;;;;5047929;28;20369;-77
2023/01/22 01:38:30;;;;;;;16.85;8.82;;;-3.30;93.70;;;;;;5053633;28;20412;-77
2023/01/22 01:40:56;;;;;;;19.75;11.82;;;-3.30;93.70;;;;;;5053294;28;20117;-78
2023/01/22 01:43:22;;;;;;;13.15;8.88;;;-3.20;93.70;;;;;;5053418;28;20033;-77
2023/01/22 01:45:48;;;;;;;12.35;7.07;;;-3.20;93.80;;;;;;5053319;28;20041;-77
2023/01/22 01:48:31;;;;;;;17.40;8.98;;;-3.10;93.70;;;;;;5053401;28;20078;-78
2023/01/22 01:51:01;;;;;;;18.48;8.80;;;-3.10;93.70;;;;;;5052300;28;20035;-77
2023/01/22 01:53:27;;;;;;;15.52;7.00;;;-3.10;93.70;;;;;;5053251;28;20052;-77
2023/01/22 01:55:55;;;;;;;17.85;9.80;;;-3.10;93.60;;;;;;5053255;28;20131;-78
2023/01/22 01:58:23;;;;;;;21.02;9.68;;;-3.10;93.70;;;;;;5034896;28;20041;-78
2023/01/22 02:00:54;;;;;;;;;;;-3.00;93.70;;;;;;5053669;28;20025;-78
2023/01/22 02:03:21;;;;;;;22.85;9.38;;;-3.00;93.70;;;;;;5049817;28;20400;-78
2023/01/22 02:05:47;;;;;;;22.50;10.00;;;-2.80;93.80;;;;;;5047323;28;20063;-78
2023/01/22 02:08:13;;;;;;;15.05;8.45;;;-2.70;93.70;;;;;;5048000;28;20025;-76
2023/01/22 02:10:40;;;;;;;17.43;9.77;;;-2.70;93.50;;;;;;5053035;28;20433;-76
2023/01/22 02:13:19;;;;;;;14.43;8.20;;;-2.70;93.40;;;;;;5052758;28;20460;-77
2023/01/22 02:15:45;;;;;;;14.75;7.20;;;-2.70;93.40;;;;;;5043836;28;20029;-78
2023/01/22 02:18:11;;;;;;;15.20;9.63;;;-2.80;93.40;;;;;;5052637;28;20021;-77
2023/01/22 02:20:39;;;;;;;17.48;8.10;;;-2.80;93.30;;;;;;5052833;28;20055;-78
2023/01/22 02:23:05;;;;;;;19.25;10.13;;;-2.90;93.30;;;;;;5052654;28;20013;-79
2023/01/22 02:25:35;;;;;;;18.42;10.93;;;-2.90;93.50;;;;;;5051409;28;20031;-78
2023/01/22 02:28:00;;;;;;;17.52;9.25;;;-2.90;93.50;;;;;;5052438;28;20498;-76
2023/01/22 02:30:26;;;;;;;16.50;9.02;;;-2.90;93.50;;;;;;5045234;28;20053;-77
2023/01/22 02:32:52;;;;;;;14.10;9.48;;;-2.90;93.50;;;;;;5045149;28;20029;-78
2023/01/22 02:35:18;;;;;;;15.73;9.20;;;-2.90;93.60;;;;;;5044393;28;20555;-78
2023/01/22 02:37:44;;;;;;;10.43;6.65;;;-2.90;93.70;;;;;;5044954;28;20071;-78
2023/01/22 02:40:10;;;;;;;15.63;8.40;;;-2.90;93.70;;;;;;5034343;28;20151;-78
2023/01/22 02:42:36;;;;;;;14.68;6.97;;;-3.00;93.60;;;;;;5052332;28;20025;-79
2023/01/22 02:45:02;;;;;;;21.85;9.27;;;-3.00;93.80;;;;;;5039394;28;20021;-77
2023/01/22 02:47:27;;;;;;;19.52;11.68;;;-3.10;93.90;;;;;;5052004;28;20167;-77
2023/01/22 02:49:53;;;;;;;15.02;8.38;;;-3.10;94.30;;;;;;5052126;28;20020;-77
2023/01/22 02:52:19;;;;;;;13.88;8.63;;;-3.00;94.10;;;;;;5051926;28;20029;-78
2023/01/22 02:54:45;;;;;;;17.02;6.55;;;-3.10;94.00;;;;;;5044853;28;20025;-77
2023/01/22 02:57:10;;;;;;;15.68;8.23;;;-3.10;94.10;;;;;;5051937;28;20021;-77
2023/01/22 02:59:36;;;;;;;15.13;9.25;;;-3.20;94.20;;;;;;5051585;28;20114;-79
2023/01/22 03:02:02;;;;;;;14.30;7.32;;;-3.20;94.40;;;;;;5051540;28;20025;-77
2023/01/22 03:04:28;;;;;;;18.25;10.77;;;-3.20;94.50;;;;;;5034216;28;20471;-78
2023/01/22 03:06:54;;;;;;;17.70;10.68;;;-3.20;94.60;;;;;;5044552;28;20029;-78
2023/01/22 03:09:20;;;;;;;15.00;7.85;;;-3.10;94.60;;;;;;5051678;28;20022;-77
2023/01/22 03:11:46;;;;;;;16.40;10.07;;;-3.10;94.50;;;;;;5033673;28;20028;-76
2023/01/22 03:22:26;;;;;;;10.07;6.15;;;-3.20;94.80;;;;;;5051695;28;20146;-78
2023/01/22 03:24:52;;;;;;;17.02;10.55;;;-3.20;94.90;;;;;;5051524;28;20021;-76
2023/01/22 03:27:24;;;;;;;14.30;7.95;;;-3.30;95.00;;;;;;5051652;28;20443;-77
2023/01/22 03:29:50;;;;;;;14.90;7.70;;;-3.30;95.00;;;;;;5049920;28;20533;-76
2023/01/22 03:32:16;;;;;;;16.75;10.25;;;-3.30;95.10;;;;;;5048270;28;20029;-76
2023/01/22 03:34:42;;;;;;;17.67;10.70;;;-3.30;95.20;;;;;;5051459;28;20025;-77
2023/01/22 03:37:11;;;;;;;17.73;9.80;;;-3.40;95.20;;;;;;5021727;28;20033;-76
2023/01/22 03:39:38;;;;;;;12.02;7.03;;;-3.30;95.30;;;;;;5029918;28;20445;-78
2023/01/22 03:42:03;;;;;;;18.67;9.20;;;-3.30;95.30;;;;;;5041507;28;20031;-79
2023/01/22 03:44:29;;;;;;;14.63;8.63;;;-3.40;95.40;;;;;;5048310;28;20363;-77
2023/01/22 03:46:56;;;;;;;17.17;9.18;;;-3.40;95.50;;;;;;5051346;28;20025;-77
2023/01/22 03:49:22;;;;;;;23.20;10.43;;;-3.40;95.50;;;;;;5051323;28;20468;-75
2023/01/22 03:51:48;;;;;;;17.83;9.70;;;-3.30;95.60;;;;;;5051143;28;20059;-77
2023/01/22 03:54:14;;;;;;;19.45;10.20;;;-3.30;95.60;;;;;;5051351;28;20044;-77
2023/01/22 03:56:41;;;;;;;17.80;8.77;;;-3.30;95.60;;;;;;5051270;28;20017;-76
2023/01/22 03:59:08;;;;;;;12.82;8.30;;;-3.30;95.60;;;;;;5033267;28;20084;-78
2023/01/22 04:01:34;;;;;;;14.80;7.43;;;-3.30;95.60;;;;;;5051138;28;20029;-78
2023/01/22 04:04:00;;;;;;;21.75;10.82;;;-3.20;95.60;;;;;;5028783;28;20025;-77
2023/01/22 04:06:27;;;;;;;20.80;11.73;;;-3.20;95.60;;;;;;5046475;28;20048;-76
2023/01/22 04:08:54;;;;;;;21.27;10.93;;;-3.10;95.70;;;;;;5051244;28;20016;-77
2023/01/22 04:11:20;;;;;;;16.70;9.07;;;-3.10;95.60;;;;;;5051343;28;20497;-76
2023/01/22 04:13:46;;;;;;;17.73;10.45;;;-3.00;95.50;;;;;;5050964;28;20020;-78
2023/01/22 04:16:14;;;;;;;17.67;10.05;;;-3.00;95.50;;;;;;5037301;28;20025;-76
2023/01/22 04:18:40;;;;;;;19.85;9.70;;;-2.90;95.60;;;;;;5055086;28;20097;-77
2023/01/22 04:21:07;;;;;;;24.00;10.07;;;-2.90;95.40;;;;;;5054962;28;20067;-80
2023/01/22 04:23:33;;;;;;;21.92;8.68;;;-2.90;95.40;;;;;;5054978;28;20025;-77
2023/01/22 04:25:59;;;;;;;20.10;9.75;;;-2.90;95.30;;;;;;5054950;28;20047;-78
2023/01/22 04:28:25;;;;;;;15.70;9.82;;;-2.90;95.30;;;;;;5054778;28;20083;-77
2023/01/22 04:30:52;;;;;;;17.20;8.68;;;-3.00;95.40;;;;;;5054447;28;20022;-76
2023/01/22 04:33:19;;;;;;;18.92;9.27;;;-2.90;95.50;;;;;;5054659;28;20020;-79
2023/01/22 04:35:52;;;;;;;23.88;11.07;;;-2.90;95.50;;;;;;5054482;28;20013;-76
2023/01/22 04:38:18;;;;;;;24.00;12.73;;;-3.00;95.50;;;;;;5049805;28;20026;-77
2023/01/22 04:40:46;;;;;;;19.65;8.82;;;-2.90;95.60;;;;;;5051526;28;20426;-77
2023/01/22 04:43:12;;;;;;;19.30;8.43;;;-2.90;95.50;;;;;;5054387;28;20029;-77
2023/01/22 04:45:38;;;;;;;22.38;10.80;;;-3.00;95.50;;;;;;5054340;28;20024;-77
2023/01/22 04:48:04;;;;;;;23.20;10.63;;;-3.00;95.70;;;;;;5054612;28;20062;-75
2023/01/22 04:50:32;;;;;;;22.23;9.70;;;-3.00;95.70;;;;;;5054471;28;20106;-77
2023/01/22 04:52:58;;;;;;;20.33;9.55;;;-3.00;95.70;;;;;;5054371;28;20025;-77
2023/01/22 04:55:25;;;;;;;19.50;9.73;;;-3.00;95.70;;;;;;5054368;28;20025;-76
2023/01/22 04:57:56;;;;;;;16.77;10.43;;;-3.10;95.70;;;;;;5053959;28;20040;-77
2023/01/22 05:00:22;;;;;;;25.15;12.77;;;-3.00;95.80;;;;;;5044010;28;20466;-77
2023/01/22 05:02:48;;;;;;;22.13;11.00;;;-3.00;95.90;;;;;;5054066;28;20027;-79
2023/01/22 05:05:14;;;;;;;23.67;12.10;;;-3.00;95.90;;;;;;5048134;28;20386;-77
2023/01/22 05:07:40;;;;;;;19.42;11.63;;;-3.00;95.90;;;;;;5053899;28;20147;-78
2023/01/22 05:10:06;;;;;;;23.85;12.10;;;-2.90;95.90;;;;;;5049465;28;20101;-77
2023/01/22 05:12:33;;;;;;;16.75;9.10;;;-2.90;95.90;;;;;;5054084;28;20056;-76
2023/01/22 05:14:59;;;;;;;18.52;10.52;;;-2.80;96.00;;;;;;5053808;28;20100;-78
2023/01/22 05:17:25;;;;;;;16.98;10.88;;;-2.80;95.80;;;;;;5053960;28;20211;-77
2023/01/22 05:19:51;;;;;;;28.13;12.25;;;-2.90;95.80;;;;;;5053816;28;20017;-77
2023/01/22 05:22:16;;;;;;;19.15;11.02;;;-2.90;95.90;;;;;;5035940;28;20572;-78
2023/01/22 05:24:48;;;;;;;24.35;11.13;;;-2.90;95.90;;;;;;5054839;28;20029;-77
2023/01/22 05:27:14;;;;;;;23.52;12.40;;;-2.90;95.90;;;;;;5034402;28;20037;-76
2023/01/22 05:29:40;;;;;;;26.45;12.52;;;-2.80;96.10;;;;;;5033457;28;20021;-79
2023/01/22 05:32:05;;;;;;;16.25;9.35;;;-2.80;95.90;;;;;;5047079;28;20056;-78
2023/01/22 05:34:31;;;;;;;22.23;11.90;;;-2.80;95.90;;;;;;5031502;28;20480;-78
2023/01/22 05:36:57;;;;;;;24.52;13.68;;;-2.80;95.90;;;;;;5034963;28;20042;-78
2023/01/22 05:39:23;;;;;;;46.65;13.55;;;-2.80;95.90;;;;;;5052885;28;20388;-77
2023/01/22 05:41:48;;;;;;;21.65;12.60;;;-2.80;96.00;;;;;;5017830;28;20022;-79
2023/01/22 05:44:14;;;;;;;21.13;12.60;;;-2.60;96.20;;;;;;5034652;28;20032;-78
2023/01/22 05:46:40;;;;;;;25.20;13.93;;;-2.50;96.10;;;;;;5016705;28;20061;-77
2023/01/22 05:49:06;;;;;;;27.20;13.90;;;-2.50;96.00;;;;;;5044766;28;20024;-78
2023/01/22 05:51:33;;;;;;;24.73;14.05;;;-2.40;95.90;;;;;;5034855;28;20752;-78
2023/01/22 05:53:59;;;;;;;24.88;12.52;;;-2.40;95.80;;;;;;5027299;28;20025;-77
2023/01/22 05:56:24;;;;;;;27.20;14.15;;;-2.40;95.80;;;;;;5043862;28;20022;-77
2023/01/22 05:58:50;;;;;;;25.77;12.10;;;-2.40;95.60;;;;;;5052952;28;20041;-78
2023/01/22 06:01:16;;;;;;;18.70;12.35;;;-2.40;95.60;;;;;;5049267;28;20102;-78
2023/01/22 06:03:42;;;;;;;24.88;12.70;;;-2.40;95.70;;;;;;5048259;28;20036;-76
2023/01/22 06:06:15;;;;;;;24.58;12.55;;;-2.50;95.70;;;;;;5035142;28;20044;-79
2023/01/22 06:08:41;;;;;;;21.98;12.45;;;-2.50;95.70;;;;;;5052222;28;20024;-78
2023/01/22 06:11:12;;;;;;;25.63;14.75;;;-2.50;95.70;;;;;;5052344;28;20821;-77
2023/01/22 06:13:38;;;;;;;25.42;10.88;;;-2.60;95.80;;;;;;5052639;28;20021;-78
2023/01/22 06:16:05;;;;;;;36.23;11.07;;;-2.60;95.90;;;;;;5052220;28;20432;-78
2023/01/22 06:18:31;;;;;;;26.02;11.63;;;-2.60;96.00;;;;;;5049003;28;20036;-78
2023/01/22 06:21:02;;;;;;;26.23;11.88;;;-2.60;96.00;;;;;;5052510;28;20112;-79
2023/01/22 06:23:28;;;;;;;29.30;13.00;;;-2.60;96.10;;;;;;5049529;28;20044;-79
2023/01/22 06:25:56;;;;;;;28.27;13.55;;;-2.60;96.10;;;;;;5048648;28;20049;-79
2023/01/22 06:28:22;;;;;;;28.08;16.45;;;-2.50;96.30;;;;;;5042974;28;20029;-78
2023/01/22 06:30:48;;;;;;;24.48;15.20;;;-2.40;96.30;;;;;;5030121;28;20021;-79
2023/01/22 06:33:14;;;;;;;31.38;16.35;;;-2.30;96.20;;;;;;5047015;28;20025;-78
2023/01/22 06:35:40;;;;;;;27.75;13.38;;;-2.30;96.20;;;;;;5049825;28;20021;-78
2023/01/22 06:38:07;;;;;;;26.48;14.82;;;-2.20;96.00;;;;;;5033239;28;20394;-78
2023/01/22 06:40:33;;;;;;;18.80;9.95;;;-2.20;96.00;;;;;;5046300;28;20099;-77
2023/01/22 06:43:04;;;;;;;29.00;13.30;;;-2.20;95.90;;;;;;5051924;28;20479;-77
2023/01/22 06:45:29;;;;;;;27.83;10.77;;;-2.30;95.90;;;;;;5041490;28;20495;-76
2023/01/22 06:47:55;;;;;;;25.58;13.65;;;-2.40;96.00;;;;;;5047856;28;20101;-76
2023/01/22 06:50:21;;;;;;;23.30;11.88;;;-2.50;96.20;;;;;;5042642;28;20025;-79
2023/01/22 06:52:47;;;;;;;25.52;14.43;;;-2.50;96.40;;;;;;5045610;28;20159;-79
2023/01/22 06:55:13;;;;;;;27.95;12.77;;;-2.50;96.50;;;;;;5038654;28;20083;-87
2023/01/22 06:57:39;;;;;;;26.33;14.23;;;-2.50;96.70;;;;;;5032560;28;20024;-84
2023/01/22 07:00:05;;;;;;;16.40;9.77;;;-2.50;96.70;;;;;;5041116;28;20052;-81
2023/01/22 07:02:31;;;;;;;20.98;8.55;;;-2.60;96.90;;;;;;5052145;28;20474;-79
2023/01/22 07:04:57;;;;;;;23.45;13.73;;;-2.60;97.00;;;;;;5051721;28;20061;-78
2023/01/22 07:07:23;;;;;;;26.17;12.77;;;-2.70;97.10;;;;;;5051965;28;20072;-80
2023/01/22 07:09:49;;;;;;;30.20;15.55;;;-2.70;97.30;;;;;;5051500;28;20028;-82
2023/01/22 07:12:14;;;;;;;32.00;15.52;;;-2.70;97.30;;;;;;5051640;28;20033;-81
2023/01/22 07:14:40;;;;;;;34.83;17.17;;;-2.60;97.50;;;;;;5051713;28;20025;-83
2023/01/22 07:17:06;;;;;;;28.85;16.52;;;-2.50;97.60;;;;;;5033916;28;20021;-82
2023/01/22 07:19:32;;;;;;;28.27;13.63;;;-2.40;97.50;;;;;;5041890;28;20032;-82
2023/01/22 07:21:58;;;;;;;24.42;13.63;;;-2.30;97.40;;;;;;5051356;28;20055;-81
2023/01/22 07:24:24;;;;;;;34.85;14.48;;;-2.30;97.30;;;;;;5049564;28;20032;-78
2023/01/22 07:26:49;;;;;;;28.40;15.00;;;-2.30;97.30;;;;;;5032679;28;20108;-76
2023/01/22 07:29:17;;;;;;;27.73;16.70;;;-2.40;97.50;;;;;;5036109;28;20184;-77
2023/01/22 07:31:43;;;;;;;29.48;14.50;;;-2.30;97.50;;;;;;5024029;28;20043;-76
2023/01/22 07:34:09;;;;;;;27.25;15.82;;;-2.40;97.60;;;;;;5049408;28;20017;-77
2023/01/22 07:36:35;;;;;;;27.20;14.02;;;-2.40;97.80;;;;;;5047790;28;20033;-77
2023/01/22 07:39:05;;;;;;;28.98;15.02;;;-2.40;97.90;;;;;;5046432;28;20414;-77
2023/01/22 07:41:31;;;;;;;32.78;15.38;;;-2.40;98.00;;;;;;5050949;28;20063;-77
2023/01/22 07:43:59;;;;;;;21.42;11.70;;;-2.40;98.10;;;;;;5019719;28;20033;-77
2023/01/22 07:46:26;;;;;;;25.98;13.98;;;-2.40;98.20;;;;;;5047108;28;20369;-78
2023/01/22 07:48:54;;;;;;;34.78;17.50;;;-2.50;98.30;;;;;;5051647;28;20173;-78
2023/01/22 07:51:20;;;;;;;26.00;13.43;;;-2.50;98.40;;;;;;5039133;28;20408;-77
2023/01/22 07:53:48;;;;;;;37.67;17.00;;;-2.50;98.60;;;;;;5037211;28;20095;-78
2023/01/22 07:56:13;;;;;;;26.65;14.98;;;-2.50;98.70;;;;;;5037060;28;20029;-77
2023/01/22 07:58:40;;;;;;;31.42;15.02;;;-2.50;98.70;;;;;;5051635;28;20099;-77
2023/01/22 08:01:09;;;;;;;33.55;16.70;;;-2.50;98.90;;;;;;5048281;28;20021;-76
2023/01/22 08:03:36;;;;;;;39.72;19.58;;;-2.50;98.80;;;;;;5052095;28;20040;-77
2023/01/22 08:06:11;;;;;;;33.90;14.25;;;-2.40;98.90;;;;;;5046087;28;20083;-77
2023/01/22 08:08:37;;;;;;;32.85;15.48;;;-2.30;99.00;;;;;;5054856;28;20029;-76
2023/01/22 08:11:03;;;;;;;31.63;16.48;;;-2.30;98.80;;;;;;5055100;28;20071;-77
2023/01/22 08:13:29;;;;;;;21.92;13.85;;;-2.20;99.00;;;;;;5047100;28;20056;-77
2023/01/22 08:15:55;;;;;;;31.40;13.52;;;-2.20;98.70;;;;;;5043100;28;20064;-77
2023/01/22 08:18:21;;;;;;;25.13;15.02;;;-2.20;98.60;;;;;;5040920;28;20060;-76
2023/01/22 08:20:47;;;;;;;29.15;15.13;;;-2.20;98.80;;;;;;5054832;28;20495;-78
2023/01/22 08:23:13;;;;;;;37.92;17.23;;;-2.20;98.70;;;;;;5042588;28;20025;-77
2023/01/22 08:25:39;;;;;;;27.05;12.48;;;-2.20;98.70;;;;;;5043800;28;20119;-78
2023/01/22 08:28:06;;;;;;;30.20;14.48;;;-2.20;98.80;;;;;;5053665;28;20025;-77
2023/01/22 08:30:33;;;;;;;43.33;15.37;;;-2.30;98.80;;;;;;5047578;28;20528;-77
2023/01/22 08:33:01;;;;;;;30.58;15.85;;;-2.30;99.00;;;;;;5054370;28;20277;-76
2023/01/22 08:35:28;;;;;;;20.25;12.43;;;-2.30;99.10;;;;;;5035026;28;20045;-79
2023/01/22 08:37:58;;;;;;;30.75;16.17;;;-2.20;99.10;;;;;;5054507;28;20114;-78
2023/01/22 08:40:24;;;;;;;26.70;13.55;;;-2.20;99.00;;;;;;5021492;28;20453;-78
2023/01/22 08:42:51;;;;;;;34.08;16.98;;;-2.30;98.90;;;;;;5050657;28;20021;-79
2023/01/22 08:45:16;;;;;;;34.53;13.63;;;-2.20;99.10;;;;;;5051492;28;20026;-79
2023/01/22 08:47:42;;;;;;;33.47;15.73;;;-2.30;99.00;;;;;;5036277;28;20083;-78
2023/01/22 08:50:09;;;;;;;31.50;13.98;;;-2.30;99.10;;;;;;5052208;28;20017;-78
2023/01/22 08:52:35;;;;;;;22.35;11.68;;;-2.20;99.20;;;;;;5033217;28;20028;-78
2023/01/22 08:55:00;;;;;;;27.85;11.68;;;-2.20;99.10;;;;;;5054276;28;20017;-80
2023/01/22 08:57:26;;;;;;;33.20;15.02;;;-2.20;99.00;;;;;;5032646;28;20103;-78
2023/01/22 08:59:52;;;;;;;33.83;17.05;;;-2.30;99.10;;;;;;5049694;28;20045;-78
2023/01/22 09:02:18;;;;;;;31.35;15.73;;;-2.20;99.20;;;;;;5054070;28;20029;-79
2023/01/22 09:04:44;;;;;;;32.83;17.48;;;-2.10;99.40;;;;;;5054069;28;20056;-76
2023/01/22 09:07:10;;;;;;;30.73;15.77;;;-2.00;99.30;;;;;;5053911;28;20028;-79
2023/01/22 09:09:36;;;;;;;26.88;15.07;;;-1.90;99.60;;;;;;5041174;28;20048;-78
2023/01/22 09:12:02;;;;;;;30.30;15.98;;;-1.90;99.10;;;;;;5040279;28;20021;-78
2023/01/22 09:14:28;;;;;;;37.10;15.63;;;-1.80;99.00;;;;;;5048152;28;20048;-78
2023/01/22 09:16:54;;;;;;;30.92;15.65;;;-1.80;98.90;;;;;;5037728;28;20045;-79
2023/01/22 09:19:20;;;;;;;32.72;17.42;;;-1.70;99.00;;;;;;5053909;28;20100;-79
2023/01/22 09:21:48;;;;;;;28.73;16.48;;;-1.70;98.80;;;;;;5049965;28;20470;-78
2023/01/22 09:24:14;;;;;;;30.42;18.85;;;-1.60;98.70;;;;;;5042821;28;20018;-80
2023/01/22 09:26:41;;;;;;;30.63;16.52;;;-1.50;98.70;;;;;;5046171;28;20078;-77
2023/01/22 09:29:07;;;;;;;27.80;16.63;;;-1.50;98.50;;;;;;5053296;28;20029;-78
2023/01/22 09:31:35;;;;;;;25.77;15.05;;;-1.50;98.40;;;;;;5031982;28;20125;-82
2023/01/22 09:34:01;;;;;;;32.13;18.05;;;-1.40;98.70;;;;;;5037620;28;20388;-81
2023/01/22 09:36:28;;;;;;;35.70;18.33;;;-1.30;98.30;;;;;;5034222;28;20079;-82
2023/01/22 09:38:54;;;;;;;31.08;17.80;;;-1.30;98.10;;;;;;5034069;28;20021;-82
2023/01/22 09:41:35;;;;;;;40.17;19.77;;;-1.40;98.10;;;;;;5040269;28;20021;-82
2023/01/22 09:44:30;;;;;;;36.28;19.13;;;-1.30;98.40;;;;;;5036753;28;20534;-79
2023/01/22 09:47:05;;;;;;;38.28;20.08;;;-1.20;98.30;;;;;;5039899;28;20048;-78
2023/01/22 09:49:57;;;;;;;40.38;19.77;;;-1.20;98.10;;;;;;5053509;28;20099;-78
2023/01/22 09:52:30;;;;;;;45.72;22.15;;;-1.20;98.00;;;;;;5052559;28;20124;-76
2023/01/22 09:54:56;;;;;;;37.63;20.20;;;-1.10;98.10;;;;;;5053580;28;20099;-77
2023/01/22 09:57:21;;;;;;;31.48;18.02;;;-1.10;98.10;;;;;;5053139;28;20116;-77
2023/01/22 09:59:50;;;;;;;31.77;17.05;;;-1.10;98.00;;;;;;5052892;28;21695;-76
2023/01/22 10:02:34;;;;;;;31.55;18.70;;;-1.10;97.90;;;;;;5053027;28;20434;-76
2023/01/22 10:05:21;;;;;;;33.58;20.88;;;-1.20;98.00;;;;;;5040662;28;20534;-77
2023/01/22 10:07:59;;;;;;;34.42;20.38;;;-1.20;98.20;;;;;;5042654;28;20047;-78
2023/01/22 10:10:26;;;;;;;42.40;21.58;;;-1.10;98.30;;;;;;5051980;28;20099;-78
2023/01/22 10:13:08;;;;;;;36.13;17.90;;;-1.00;98.40;;;;;;5051767;28;20032;-78
2023/01/22 10:15:34;;;;;;;46.38;21.20;;;-1.00;98.10;;;;;;5034212;28;20496;-77
2023/01/22 10:18:28;;;;;;;33.92;19.92;;;-1.10;98.10;;;;;;5033012;28;20112;-75
2023/01/22 10:20:55;;;;;;;40.85;21.75;;;-1.00;98.10;;;;;;5040552;28;20036;-77
2023/01/22 10:23:24;;;;;;;43.05;20.92;;;-1.00;97.90;;;;;;5052915;28;20025;-79
2023/01/22 10:25:55;;;;;;;41.42;19.55;;;-1.00;98.00;;;;;;5047505;28;20035;-78
2023/01/22 10:28:25;;;;;;;33.80;19.30;;;-1.10;97.90;;;;;;5034177;28;20083;-78
2023/01/22 10:30:56;;;;;;;33.67;20.08;;;-1.10;98.00;;;;;;5053109;28;20028;-78
2023/01/22 10:33:24;;;;;;;37.45;19.48;;;-1.00;98.20;;;;;;5053655;28;20021;-79
2023/01/22 10:35:51;;;;;;;;;;;-1.00;98.00;;;;;;5054036;28;20014;-79
2023/01/22 10:38:34;;;;;;;36.85;19.02;;;-1.00;98.00;;;;;;5054376;28;19904;-79
2023/01/22 10:41:03;;;;;;;31.90;19.08;;;-1.10;97.80;;;;;;5023076;28;20030;-78
2023/01/22 10:43:34;;;;;;;34.92;20.10;;;-1.10;97.90;;;;;;5064515;28;20025;-78
2023/01/22 10:46:23;;;;;;;35.28;19.02;;;-1.00;98.10;;;;;;5058478;28;20336;-79
2023/01/22 10:49:04;;;;;;;32.85;18.08;;;-1.00;98.00;;;;;;5052309;28;20028;-80
2023/01/22 10:51:44;;;;;;;34.75;19.35;;;-0.90;98.00;;;;;;5049501;28;20017;-79
2023/01/22 10:54:27;;;;;;;34.15;19.60;;;-0.80;97.90;;;;;;5064772;28;20021;-80
2023/01/22 10:57:15;;;;;;;34.65;19.48;;;-0.80;97.80;;;;;;5059279;28;20021;-79
2023/01/22 10:59:48;;;;;;;44.45;20.67;;;-0.90;97.60;;;;;;5034573;28;20495;-78
2023/01/22 11:02:21;;;;;;;34.63;19.90;;;-0.80;97.90;;;;;;5052669;28;20051;-79
2023/01/22 11:04:47;;;;;;;40.00;21.70;;;-0.70;97.80;;;;;;5049425;28;20075;-78
2023/01/22 11:07:30;;;;;;;46.00;21.70;;;-0.60;97.80;;;;;;5034239;28;20503;-77
2023/01/22 11:10:25;;;;;;;37.30;20.70;;;-0.50;97.80;;;;;;5052076;28;20032;-78
2023/01/22 11:13:10;;;;;;;41.22;22.33;;;-0.30;97.80;;;;;;5052140;28;20079;-79
2023/01/22 11:15:42;;;;;;;41.80;23.92;;;-0.30;97.50;;;;;;5051811;28;20029;-78
2023/01/22 11:18:22;;;;;;;43.55;21.17;;;-0.20;97.40;;;;;;5052168;28;20048;-77
2023/01/22 11:20:53;;;;;;;40.25;23.65;;;-0.20;97.20;;;;;;5040282;28;20060;-79
2023/01/22 11:23:36;;;;;;;40.85;23.90;;;-0.30;97.00;;;;;;5038695;28;20029;-79
2023/01/22 11:26:12;;;;;;;39.35;20.27;;;-0.30;97.10;;;;;;5034219;28;20044;-81
2023/01/22 11:28:58;;;;;;;42.17;23.33;;;-0.20;97.10;;;;;;5037469;28;20013;-81
2023/01/22 11:31:43;;;;;;;43.03;23.65;;;-0.20;97.10;;;;;;5052825;28;20025;-83
2023/01/22 11:34:50;;;;;;;48.47;23.80;;;-0.10;97.00;;;;;;5039803;28;20021;-81
2023/01/22 11:37:21;;;;;;;41.30;24.25;;;-0.10;96.90;;;;;;5026701;28;20151;-82
2023/01/22 11:40:17;;;;;;;42.40;24.35;;;0.00;96.90;;;;;;5051599;28;20492;-80
2023/01/22 11:42:58;;;;;;;41.67;23.30;;;0.00;96.80;;;;;;5033597;28;20028;-80
2023/01/22 11:45:57;;;;;;;44.25;22.63;;;0.00;96.60;;;;;;5051672;28;20056;-80
2023/01/22 11:48:30;;;;;;;44.85;23.38;;;0.00;96.60;;;;;;5051575;28;20086;-79
2023/01/22 11:51:16;;;;;;;42.75;26.70;;;0.00;96.60;;;;;;5051606;28;20028;-80
2023/01/22 11:53:42;;;;;;;41.67;22.70;;;0.00;96.60;;;;;;5039048;28;20024;-81
2023/01/22 11:56:34;;;;;;;40.78;22.23;;;0.00;96.60;;;;;;5034279;28;20262;-83
2023/01/22 11:59:17;;;;;;;44.00;24.88;;;0.00;96.60;;;;;;5033117;28;20046;-77
2023/01/22 12:02:19;;;;;;;33.90;20.13;;;0.10;96.60;;;;;;5036035;28;20498;-79
2023/01/22 12:04:51;;;;;;;51.65;20.98;;;0.10;96.40;;;;;;5027786;28;20090;-78
2023/01/22 12:07:20;;;;;;;44.65;24.17;;;0.00;96.40;;;;;;5048293;28;20033;-79
2023/01/22 12:09:55;;;;;;;47.38;22.77;;;0.00;96.40;;;;;;5035553;28;20041;-78
2023/01/22 12:12:41;;;;;;;41.28;21.60;;;0.00;96.50;;;;;;5043086;28;20476;-78
2023/01/22 12:15:25;;;;;;;44.40;22.40;;;0.00;96.40;;;;;;5046712;28;20025;-79
2023/01/22 12:18:22;;;;;;;35.08;21.73;;;0.00;96.30;;;;;;5043099;28;20034;-80
2023/01/22 12:21:08;;;;;;;32.65;20.73;;;-0.10;96.30;;;;;;5035962;28;20100;-79
2023/01/22 12:23:58;;;;;;;41.00;20.63;;;-0.10;96.40;;;;;;5033169;28;20026;-79
2023/01/22 12:26:30;;;;;;;39.85;20.23;;;-0.20;96.40;;;;;;5041836;28;20076;-79
2023/01/22 12:29:13;;;;;;;39.83;21.17;;;-0.20;96.40;;;;;;5034618;28;20104;-79
2023/01/22 12:31:53;;;;;;;36.83;20.88;;;-0.20;96.40;;;;;;5031827;28;20025;-79
2023/01/22 12:34:28;;;;;;;42.95;22.35;;;-0.30;96.30;;;;;;5019271;28;20029;-79
2023/01/22 12:36:54;;;;;;;37.28;21.13;;;-0.30;96.50;;;;;;5047097;28;20072;-79
2023/01/22 12:39:55;;;;;;;43.30;23.02;;;-0.30;96.50;;;;;;5040674;28;20028;-80
2023/01/22 12:42:49;;;;;;;38.88;19.20;;;-0.20;96.60;;;;;;4992391;28;20029;-79
2023/01/22 12:45:21;;;;;;;39.35;22.10;;;-0.20;96.50;;;;;;5042531;28;20021;-79
2023/01/22 12:48:08;;;;;;;35.75;20.77;;;-0.20;96.40;;;;;;5054535;28;20037;-80
2023/01/22 12:50:34;;;;;;;37.65;19.20;;;-0.20;96.40;;;;;;5035201;28;20118;-80
2023/01/22 12:53:18;;;;;;;40.15;22.48;;;-0.30;96.30;;;;;;5054232;28;20033;-78